Time;durP1;ratioP1;P1;durP2;ratioP2;P2;SDS_P1;SDS_P2;PMS_P1;PMS_P2;Temp;Humidity;BMP_temperature;BMP_pressure;BME280_temperature;BME280_humidity;BME280_pressure;Samples;Min_cycle;Max_cycle;Signal;HPM_P1;HPM_P2
2021/12/09 00:00:59;;;;;;;15.57;9.67;;;2.80;99.90;;;;;;5042449;28;20384;-47
2021/12/09 00:03:28;;;;;;;13.23;8.57;;;2.80;99.90;;;;;;5031768;28;20456;-47
2021/12/09 00:05:57;;;;;;;16.60;9.33;;;2.80;99.90;;;;;;5051674;28;20293;-47
2021/12/09 00:08:25;;;;;;;16.00;9.50;;;2.80;99.90;;;;;;5025858;28;21241;-47
2021/12/09 00:10:53;;;;;;;13.73;8.57;;;2.80;99.90;;;;;;5055718;28;20234;-47
2021/12/09 00:13:22;;;;;;;11.00;8.17;;;2.80;99.90;;;;;;5053276;28;20810;-42
2021/12/09 00:15:50;;;;;;;16.03;8.67;;;2.80;99.90;;;;;;5059424;28;20216;-41
2021/12/09 00:18:17;;;;;;;15.07;9.23;;;2.90;99.90;;;;;;5040396;28;20206;-42
2021/12/09 00:20:44;;;;;;;14.27;8.53;;;2.80;99.90;;;;;;5045364;28;20210;-41
2021/12/09 00:23:11;;;;;;;13.80;9.43;;;2.80;99.90;;;;;;5032796;28;20231;-41
2021/12/09 00:25:38;;;;;;;13.30;8.97;;;2.80;99.90;;;;;;5029806;28;20699;-41
2021/12/09 00:28:06;;;;;;;13.80;9.30;;;2.80;99.90;;;;;;5050544;28;20216;-41
2021/12/09 00:30:35;;;;;;;15.50;10.27;;;2.70;99.90;;;;;;5059055;28;20222;-41
2021/12/09 00:33:05;;;;;;;13.63;9.43;;;2.70;99.90;;;;;;5053124;28;20232;-41
2021/12/09 00:35:33;;;;;;;15.27;9.60;;;2.70;99.90;;;;;;5037743;28;20296;-41
2021/12/09 00:38:04;;;;;;;15.27;9.70;;;2.60;99.90;;;;;;5045525;28;20698;-42
2021/12/09 00:40:31;;;;;;;16.07;9.40;;;2.60;99.90;;;;;;5038069;28;20559;-41
2021/12/09 00:42:58;;;;;;;13.23;9.20;;;2.60;99.90;;;;;;5064814;28;20224;-42
2021/12/09 00:45:26;;;;;;;16.57;10.03;;;2.60;99.90;;;;;;5058826;28;20387;-41
2021/12/09 00:47:54;;;;;;;17.50;9.83;;;2.60;99.90;;;;;;5057509;28;20247;-41
2021/12/09 00:50:22;;;;;;;14.93;9.90;;;2.70;99.90;;;;;;5031452;28;20967;-41
2021/12/09 00:52:49;;;;;;;19.33;10.30;;;2.70;99.90;;;;;;5053094;28;20691;-45
2021/12/09 00:55:17;;;;;;;16.07;9.77;;;2.70;99.90;;;;;;5041221;28;20590;-41
2021/12/09 00:57:45;;;;;;;15.70;10.13;;;2.70;99.90;;;;;;5046914;28;20209;-41
2021/12/09 01:00:16;;;;;;;21.20;11.33;;;2.60;99.90;;;;;;5039932;28;20338;-46
2021/12/09 01:02:43;;;;;;;18.07;10.43;;;2.60;99.90;;;;;;5053174;28;20218;-46
2021/12/09 01:05:12;;;;;;;18.80;10.70;;;2.60;99.90;;;;;;5057680;28;20218;-46
2021/12/09 01:07:40;;;;;;;15.53;10.80;;;2.70;99.90;;;;;;5067135;28;20564;-45
2021/12/09 01:10:10;;;;;;;17.27;10.33;;;2.70;99.90;;;;;;5049086;28;20206;-45
2021/12/09 01:12:37;;;;;;;19.90;10.17;;;2.80;99.90;;;;;;5047485;28;20618;-46
2021/12/09 01:15:06;;;;;;;16.73;10.67;;;2.70;99.90;;;;;;5052853;28;21535;-45
2021/12/09 01:17:33;;;;;;;17.80;11.10;;;2.70;99.90;;;;;;5054090;28;20253;-46
2021/12/09 01:20:00;;;;;;;17.10;10.27;;;2.70;99.90;;;;;;5054012;28;20217;-45
2021/12/09 01:22:36;;;;;;;15.23;10.10;;;2.70;99.90;;;;;;5049573;28;20561;-46
2021/12/09 01:25:04;;;;;;;19.77;10.50;;;2.80;99.90;;;;;;5055299;28;20205;-45
2021/12/09 01:27:33;;;;;;;16.27;10.00;;;2.80;99.90;;;;;;5044829;28;21894;-46
2021/12/09 01:30:07;;;;;;;15.97;10.50;;;2.80;99.90;;;;;;5067408;28;20308;-45
2021/12/09 01:32:34;;;;;;;19.87;10.40;;;2.80;99.90;;;;;;5048527;28;20202;-46
2021/12/09 01:35:01;;;;;;;17.83;10.67;;;2.80;99.90;;;;;;5059771;28;20506;-45
2021/12/09 01:37:30;;;;;;;16.70;10.93;;;2.80;99.90;;;;;;5059739;28;20315;-46
2021/12/09 01:39:56;;;;;;;19.67;10.00;;;2.80;99.90;;;;;;5050732;28;20209;-46
2021/12/09 01:42:23;;;;;;;20.57;10.30;;;2.70;99.90;;;;;;5047556;28;20677;-46
2021/12/09 01:44:50;;;;;;;16.63;10.20;;;2.80;99.90;;;;;;5053353;28;20727;-46
2021/12/09 01:47:17;;;;;;;16.33;9.83;;;2.80;99.90;;;;;;5066707;28;20300;-46
2021/12/09 01:49:44;;;;;;;15.57;10.33;;;2.70;99.90;;;;;;5053866;28;20211;-46
2021/12/09 01:52:11;;;;;;;14.67;10.00;;;2.70;99.90;;;;;;5051604;28;20231;-46
2021/12/09 01:54:39;;;;;;;13.93;9.60;;;2.70;99.90;;;;;;5071566;28;20214;-46
2021/12/09 01:57:07;;;;;;;17.83;11.07;;;2.70;99.90;;;;;;5045841;28;20436;-46
2021/12/09 01:59:34;;;;;;;18.83;11.50;;;2.70;99.90;;;;;;5050013;28;20651;-46
2021/12/09 02:02:01;;;;;;;14.50;10.13;;;2.60;99.90;;;;;;5056157;28;20589;-45
2021/12/09 02:04:28;;;;;;;15.93;10.13;;;2.60;99.90;;;;;;5065665;28;20536;-46
2021/12/09 02:06:55;;;;;;;17.67;11.20;;;2.60;99.90;;;;;;5063645;28;20212;-46
2021/12/09 02:09:22;;;;;;;16.87;10.77;;;2.60;99.90;;;;;;5038867;28;20207;-46
2021/12/09 02:11:51;;;;;;;20.40;9.83;;;2.60;99.90;;;;;;5062573;28;20222;-46
2021/12/09 02:14:18;;;;;;;21.67;12.00;;;2.70;99.90;;;;;;5022987;28;21807;-46
2021/12/09 02:16:45;;;;;;;16.83;10.73;;;2.70;99.90;;;;;;5063952;28;20211;-46
2021/12/09 02:19:13;;;;;;;20.27;11.07;;;2.70;99.90;;;;;;5062385;28;20202;-46
2021/12/09 02:21:42;;;;;;;16.63;10.60;;;2.60;99.90;;;;;;5053277;28;20670;-46
2021/12/09 02:24:14;;;;;;;16.17;10.73;;;2.70;99.90;;;;;;5065816;28;20231;-45
2021/12/09 02:26:42;;;;;;;16.83;10.00;;;2.60;99.90;;;;;;5055862;28;20212;-46
2021/12/09 02:29:11;;;;;;;19.40;10.67;;;2.60;99.90;;;;;;5030229;28;20214;-42
2021/12/09 02:31:40;;;;;;;15.83;10.43;;;2.60;99.90;;;;;;5060639;28;20221;-41
2021/12/09 02:34:07;;;;;;;18.17;11.07;;;2.60;99.90;;;;;;5036736;28;20234;-42
2021/12/09 02:36:39;;;;;;;17.60;11.37;;;2.60;99.90;;;;;;5061652;28;20742;-41
2021/12/09 02:39:10;;;;;;;20.80;11.37;;;2.60;99.90;;;;;;5057689;28;20730;-41
2021/12/09 02:41:38;;;;;;;17.03;9.90;;;2.60;99.90;;;;;;5047919;28;20209;-41
2021/12/09 02:44:08;;;;;;;16.77;10.13;;;2.50;99.90;;;;;;5040720;28;20244;-41
2021/12/09 02:46:37;;;;;;;14.00;10.00;;;2.50;99.90;;;;;;5036777;28;20202;-41
2021/12/09 02:49:06;;;;;;;14.70;10.37;;;2.50;99.90;;;;;;5053542;28;20213;-41
2021/12/09 02:51:33;;;;;;;16.03;10.07;;;2.50;99.90;;;;;;5050458;28;20227;-47
2021/12/09 02:54:00;;;;;;;16.57;10.50;;;2.50;99.90;;;;;;5064470;28;20234;-47
2021/12/09 02:56:28;;;;;;;15.70;10.03;;;2.50;99.90;;;;;;5063656;28;20345;-47
2021/12/09 02:58:55;;;;;;;18.07;10.27;;;2.40;99.90;;;;;;5042053;28;20222;-47
2021/12/09 03:01:25;;;;;;;18.07;10.47;;;2.40;99.90;;;;;;5042937;28;20201;-47
2021/12/09 03:03:59;;;;;;;14.63;9.63;;;2.30;99.90;;;;;;5067567;28;20229;-47
2021/12/09 03:06:31;;;;;;;17.50;10.60;;;2.30;99.90;;;;;;5041086;28;20530;-47
2021/12/09 03:09:01;;;;;;;16.53;10.33;;;2.30;99.90;;;;;;5066612;28;20204;-46
2021/12/09 03:11:30;;;;;;;17.97;10.17;;;2.30;99.90;;;;;;5048226;28;20839;-47
2021/12/09 03:13:58;;;;;;;22.67;10.23;;;2.40;99.90;;;;;;5049847;28;20750;-46
2021/12/09 03:16:25;;;;;;;14.70;10.20;;;2.40;99.90;;;;;;5030656;28;20310;-47
2021/12/09 03:18:55;;;;;;;18.70;10.60;;;2.40;99.90;;;;;;5056190;28;20203;-47
2021/12/09 03:21:27;;;;;;;17.90;10.50;;;2.40;99.90;;;;;;5065158;28;20589;-46
2021/12/09 03:23:54;;;;;;;17.70;10.57;;;2.30;99.90;;;;;;5065603;28;20716;-47
2021/12/09 03:26:28;;;;;;;17.00;9.90;;;2.40;99.90;;;;;;5054357;28;20207;-46
2021/12/09 03:28:57;;;;;;;17.67;10.37;;;2.30;99.90;;;;;;5059969;28;20213;-46
2021/12/09 03:31:24;;;;;;;20.50;10.20;;;2.30;99.90;;;;;;5026478;28;20690;-47
2021/12/09 03:33:51;;;;;;;18.17;10.93;;;2.20;99.90;;;;;;5062276;28;20233;-47
2021/12/09 03:36:18;;;;;;;17.07;10.73;;;2.20;99.90;;;;;;5044223;28;20202;-47
2021/12/09 03:38:45;;;;;;;19.40;10.13;;;2.20;99.90;;;;;;5060442;28;20673;-47
2021/12/09 03:41:12;;;;;;;13.90;9.97;;;2.20;99.90;;;;;;5060522;28;20218;-45
2021/12/09 03:43:39;;;;;;;14.40;10.50;;;2.20;99.90;;;;;;5059132;28;20717;-45
2021/12/09 03:46:07;;;;;;;16.30;10.03;;;2.20;99.90;;;;;;5051468;28;20214;-45
2021/12/09 03:48:34;;;;;;;19.33;10.43;;;2.20;99.90;;;;;;5045225;28;20685;-46
2021/12/09 03:51:02;;;;;;;19.47;11.23;;;2.20;99.90;;;;;;5048803;28;20680;-42
2021/12/09 03:53:29;;;;;;;16.63;10.37;;;2.20;99.90;;;;;;5061009;28;20310;-42
2021/12/09 03:55:57;;;;;;;17.40;10.67;;;2.20;99.90;;;;;;5052399;28;20233;-42
2021/12/09 03:58:24;;;;;;;19.53;10.80;;;2.20;99.90;;;;;;5058624;28;20201;-42
2021/12/09 04:00:52;;;;;;;16.57;9.80;;;2.30;99.90;;;;;;5067506;28;20220;-42
2021/12/09 04:03:21;;;;;;;17.57;11.07;;;2.20;99.90;;;;;;5016700;28;20231;-42
2021/12/09 04:05:49;;;;;;;16.07;10.17;;;2.20;99.90;;;;;;5053434;28;20217;-42
2021/12/09 04:08:17;;;;;;;18.30;10.50;;;2.30;99.90;;;;;;5045981;28;20519;-42
2021/12/09 04:10:44;;;;;;;21.13;12.83;;;2.30;99.90;;;;;;5057540;28;20227;-47
2021/12/09 04:13:12;;;;;;;43.50;17.90;;;2.30;99.90;;;;;;5041918;28;20360;-47
2021/12/09 04:15:39;;;;;;;26.77;13.30;;;2.20;99.90;;;;;;5063885;28;20207;-47
2021/12/09 04:18:06;;;;;;;22.87;12.80;;;2.30;99.90;;;;;;5026216;28;20211;-47
2021/12/09 04:20:34;;;;;;;25.63;12.30;;;2.30;99.90;;;;;;5041765;28;20207;-47
2021/12/09 04:23:01;;;;;;;16.83;10.47;;;2.30;99.90;;;;;;5039603;28;20230;-47
2021/12/09 04:25:28;;;;;;;19.13;10.90;;;2.30;99.90;;;;;;5048881;28;20845;-47
2021/12/09 04:27:55;;;;;;;19.20;11.33;;;2.20;99.90;;;;;;5049900;28;20218;-47
2021/12/09 04:30:23;;;;;;;19.03;11.37;;;2.20;99.90;;;;;;5061984;28;20257;-47
2021/12/09 04:32:51;;;;;;;16.40;10.50;;;2.20;99.90;;;;;;5039636;28;20743;-47
2021/12/09 04:35:18;;;;;;;17.87;11.33;;;2.20;99.90;;;;;;5040339;28;20210;-47
2021/12/09 04:37:47;;;;;;;19.83;11.10;;;2.20;99.90;;;;;;5050556;28;20587;-47
2021/12/09 04:40:15;;;;;;;17.23;10.97;;;2.20;99.90;;;;;;5025400;28;20852;-46
2021/12/09 04:42:43;;;;;;;18.93;10.67;;;2.10;99.90;;;;;;5061302;28;20196;-48
2021/12/09 04:45:11;;;;;;;19.73;11.13;;;2.10;99.90;;;;;;5046696;28;20218;-47
2021/12/09 04:47:40;;;;;;;20.10;11.37;;;2.10;99.90;;;;;;5049341;28;20215;-46
2021/12/09 04:50:08;;;;;;;21.83;12.10;;;2.10;99.90;;;;;;5028813;28;22488;-46
2021/12/09 04:52:35;;;;;;;19.70;11.40;;;2.10;99.90;;;;;;5062424;28;21666;-46
2021/12/09 04:55:06;;;;;;;17.47;11.10;;;2.10;99.90;;;;;;5036015;28;20246;-41
2021/12/09 04:57:33;;;;;;;19.13;11.63;;;2.10;99.90;;;;;;5032742;28;21126;-41
2021/12/09 05:00:00;;;;;;;19.37;11.60;;;2.10;99.90;;;;;;5035726;28;22351;-41
2021/12/09 05:02:37;;;;;;;19.50;11.87;;;2.10;99.90;;;;;;5035126;28;20942;-42
2021/12/09 05:05:05;;;;;;;23.97;11.90;;;2.10;99.90;;;;;;5027224;28;20209;-42
2021/12/09 05:07:33;;;;;;;19.03;12.00;;;2.10;99.90;;;;;;5041591;28;21561;-41
2021/12/09 05:09:59;;;;;;;16.97;11.60;;;2.10;99.90;;;;;;5052344;28;20622;-41
2021/12/09 05:12:28;;;;;;;17.90;11.90;;;2.10;99.90;;;;;;5040321;28;20211;-42
2021/12/09 05:14:55;;;;;;;20.67;12.10;;;2.10;99.90;;;;;;5054267;28;20231;-41
2021/12/09 05:17:23;;;;;;;22.13;13.03;;;2.10;99.90;;;;;;5041825;28;20207;-41
2021/12/09 05:19:50;;;;;;;23.67;13.40;;;2.10;99.90;;;;;;5043314;28;20209;-41
2021/12/09 05:22:17;;;;;;;22.70;13.33;;;2.10;99.90;;;;;;5019911;28;20654;-42
2021/12/09 05:24:48;;;;;;;16.70;11.33;;;2.10;99.90;;;;;;5055034;28;20245;-41
2021/12/09 05:27:16;;;;;;;21.20;12.83;;;2.10;99.90;;;;;;5041900;28;20213;-46
2021/12/09 05:29:46;;;;;;;18.13;12.13;;;2.10;99.90;;;;;;5042910;28;20677;-41
2021/12/09 05:32:13;;;;;;;20.70;12.80;;;2.00;99.90;;;;;;5005583;28;20923;-42
2021/12/09 05:34:43;;;;;;;19.20;12.10;;;2.10;99.90;;;;;;5040243;28;20278;-41
2021/12/09 05:37:13;;;;;;;18.17;11.60;;;2.10;99.90;;;;;;5036747;28;21174;-41
2021/12/09 05:39:40;;;;;;;21.63;13.33;;;2.00;99.90;;;;;;5051514;28;20716;-42
2021/12/09 05:42:09;;;;;;;22.90;12.80;;;2.00;99.90;;;;;;5034904;28;20993;-42
2021/12/09 05:44:36;;;;;;;20.73;13.33;;;2.00;99.90;;;;;;5050567;28;20707;-41
2021/12/09 05:47:06;;;;;;;22.10;13.20;;;2.00;99.90;;;;;;5025908;28;20733;-41
2021/12/09 05:49:33;;;;;;;24.53;13.23;;;1.90;99.90;;;;;;5031639;28;20716;-42
2021/12/09 05:52:00;;;;;;;24.20;14.30;;;2.00;99.90;;;;;;5031157;28;20792;-41
2021/12/09 05:54:27;;;;;;;23.60;14.50;;;2.00;99.90;;;;;;5029254;28;20229;-42
2021/12/09 05:56:54;;;;;;;24.60;13.87;;;2.00;99.90;;;;;;5028138;28;20486;-42
2021/12/09 05:59:21;;;;;;;26.77;15.13;;;2.00;99.90;;;;;;5040963;28;20213;-42
2021/12/09 06:01:49;;;;;;;24.43;14.97;;;1.90;99.90;;;;;;5038620;28;20300;-42
2021/12/09 06:04:17;;;;;;;27.90;15.07;;;1.90;99.90;;;;;;5051898;28;20488;-42
2021/12/09 06:06:44;;;;;;;29.40;15.97;;;1.90;99.90;;;;;;5023769;28;20213;-42
2021/12/09 06:09:12;;;;;;;28.43;15.37;;;1.90;99.90;;;;;;5035347;28;20325;-42
2021/12/09 06:11:40;;;;;;;30.30;15.03;;;1.90;99.90;;;;;;5045375;28;20214;-42
2021/12/09 06:14:07;;;;;;;25.30;15.23;;;1.90;99.90;;;;;;5041780;28;20435;-42
2021/12/09 06:16:35;;;;;;;28.67;16.23;;;1.90;99.90;;;;;;5045690;28;20748;-42
2021/12/09 06:19:02;;;;;;;27.47;15.30;;;1.90;99.90;;;;;;5027870;28;20209;-42
2021/12/09 06:21:31;;;;;;;32.80;17.17;;;1.90;99.90;;;;;;5047503;28;20212;-42
2021/12/09 06:23:59;;;;;;;27.60;15.63;;;1.90;99.90;;;;;;5033063;28;20241;-42
2021/12/09 06:26:26;;;;;;;31.87;16.73;;;1.90;99.90;;;;;;5054528;28;20577;-42
2021/12/09 06:28:53;;;;;;;35.87;18.93;;;2.00;99.90;;;;;;5047145;28;20204;-42
2021/12/09 06:31:20;;;;;;;33.33;17.37;;;1.90;99.90;;;;;;5062041;28;20207;-42
2021/12/09 06:33:47;;;;;;;33.77;17.03;;;2.00;99.90;;;;;;5060242;28;20711;-42
2021/12/09 06:36:14;;;;;;;33.83;18.17;;;2.00;99.90;;;;;;5046282;28;20207;-43
2021/12/09 06:38:43;;;;;;;35.23;18.80;;;2.00;99.90;;;;;;5038031;28;20209;-42
2021/12/09 06:41:10;;;;;;;40.80;18.90;;;2.10;99.90;;;;;;5026229;28;20205;-46
2021/12/09 06:43:37;;;;;;;25.57;11.10;;;2.40;99.90;;;;;;5056016;28;20216;-46
2021/12/09 06:46:06;;;;;;;39.20;19.97;;;2.80;99.90;;;;;;5063812;28;20198;-46
2021/12/09 06:48:33;;;;;;;39.03;19.43;;;2.90;99.90;;;;;;5039519;28;20234;-46
2021/12/09 06:51:02;;;;;;;33.97;18.67;;;2.70;99.90;;;;;;5058834;28;20494;-46
2021/12/09 06:53:29;;;;;;;36.17;19.00;;;2.50;99.90;;;;;;5041558;28;20581;-45
2021/12/09 06:55:58;;;;;;;35.80;18.53;;;2.40;99.90;;;;;;5031436;28;20345;-42
2021/12/09 06:58:25;;;;;;;39.97;18.80;;;2.40;99.90;;;;;;5051368;28;20197;-42
2021/12/09 07:00:54;;;;;;;41.60;18.60;;;2.30;99.90;;;;;;5060013;28;20313;-42
2021/12/09 07:03:21;;;;;;;36.97;17.83;;;2.30;99.90;;;;;;5054825;28;20231;-42
2021/12/09 07:05:49;;;;;;;36.23;18.00;;;2.20;99.90;;;;;;5071728;28;20309;-42
2021/12/09 07:08:17;;;;;;;40.37;19.57;;;2.20;99.90;;;;;;5044388;28;20214;-42
2021/12/09 07:10:45;;;;;;;37.30;19.60;;;2.20;99.90;;;;;;5018322;28;20211;-43
2021/12/09 07:13:13;;;;;;;42.17;19.33;;;2.20;99.90;;;;;;5046656;28;20861;-42
2021/12/09 07:15:40;;;;;;;39.43;19.63;;;2.20;99.90;;;;;;5045730;28;20214;-42
2021/12/09 07:18:07;;;;;;;42.37;18.90;;;2.10;99.90;;;;;;5058800;28;20670;-42
2021/12/09 07:20:34;;;;;;;38.93;19.60;;;2.20;99.90;;;;;;5063205;28;20219;-42
2021/12/09 07:23:02;;;;;;;44.73;20.97;;;2.10;99.90;;;;;;5035008;28;20300;-42
2021/12/09 07:25:30;;;;;;;40.03;19.83;;;2.20;99.90;;;;;;5055305;28;20222;-47
2021/12/09 07:27:57;;;;;;;43.50;21.50;;;2.20;99.90;;;;;;5038382;28;20218;-48
2021/12/09 07:30:27;;;;;;;43.53;20.87;;;2.20;99.90;;;;;;5054672;28;20218;-46
2021/12/09 07:32:54;;;;;;;41.37;20.10;;;2.20;99.90;;;;;;5056344;28;20221;-47
2021/12/09 07:35:23;;;;;;;45.67;21.00;;;2.20;99.90;;;;;;5036995;28;20211;-46
2021/12/09 07:37:50;;;;;;;47.13;20.80;;;2.20;99.90;;;;;;5060330;28;20199;-46
2021/12/09 07:40:18;;;;;;;38.57;20.30;;;2.30;99.90;;;;;;5044781;28;20249;-47
2021/12/09 07:42:46;;;;;;;45.97;20.97;;;2.30;99.90;;;;;;5036597;28;20964;-47
2021/12/09 07:45:14;;;;;;;44.97;21.77;;;2.30;99.90;;;;;;5055080;28;20638;-46
2021/12/09 07:47:43;;;;;;;43.70;21.77;;;2.30;99.90;;;;;;5056950;28;20585;-46
2021/12/09 07:50:13;;;;;;;43.30;21.13;;;2.30;99.90;;;;;;5057761;28;20703;-47
2021/12/09 07:52:41;;;;;;;42.67;20.27;;;2.30;99.90;;;;;;5054202;28;20222;-47
2021/12/09 07:55:09;;;;;;;43.53;21.73;;;2.30;99.90;;;;;;5050946;28;27299;-47
2021/12/09 07:57:36;;;;;;;46.47;21.27;;;2.30;99.90;;;;;;5051984;28;20204;-47
2021/12/09 08:00:08;;;;;;;43.63;20.97;;;2.40;99.90;;;;;;5045490;28;20272;-47
2021/12/09 08:02:35;;;;;;;44.37;20.67;;;2.40;99.90;;;;;;5030039;28;20199;-46
2021/12/09 08:05:04;;;;;;;42.90;21.57;;;2.40;99.90;;;;;;5055771;28;20526;-47
2021/12/09 08:07:31;;;;;;;51.40;22.67;;;2.40;99.90;;;;;;5045547;28;20204;-46
2021/12/09 08:09:58;;;;;;;46.57;21.57;;;2.40;99.90;;;;;;5043766;28;20298;-46
2021/12/09 08:12:25;;;;;;;43.67;20.57;;;2.40;99.90;;;;;;5055327;28;20541;-46
2021/12/09 08:14:51;;;;;;;43.83;21.10;;;2.40;99.90;;;;;;5030188;28;20633;-48
2021/12/09 08:17:56;;;;;;;45.17;20.20;;;2.40;99.90;;;;;;5060728;28;20205;-47
2021/12/09 08:20:26;;;;;;;48.00;21.50;;;2.40;99.90;;;;;;5066360;28;20286;-47
2021/12/09 08:22:53;;;;;;;53.90;21.93;;;2.40;99.90;;;;;;5042778;28;20209;-47
2021/12/09 08:25:22;;;;;;;43.23;21.43;;;2.40;99.90;;;;;;5044846;28;20218;-47
2021/12/09 08:27:49;;;;;;;47.27;21.87;;;2.40;99.90;;;;;;5044592;28;20575;-47
2021/12/09 08:30:19;;;;;;;53.37;22.63;;;2.40;99.90;;;;;;5029295;28;20242;-47
2021/12/09 08:32:46;;;;;;;49.37;22.80;;;2.40;99.90;;;;;;5048190;28;20230;-47
2021/12/09 08:35:15;;;;;;;45.37;22.63;;;2.40;99.90;;;;;;5049664;28;20212;-47
2021/12/09 08:37:45;;;;;;;45.80;23.30;;;2.50;99.90;;;;;;5045942;28;20292;-47
2021/12/09 08:40:13;;;;;;;52.07;23.53;;;2.40;99.90;;;;;;5034456;28;20209;-47
2021/12/09 08:42:40;;;;;;;48.37;21.90;;;2.50;99.90;;;;;;5038536;28;20691;-47
2021/12/09 08:45:10;;;;;;;44.37;22.33;;;2.50;99.90;;;;;;5040958;28;20208;-47
2021/12/09 08:47:38;;;;;;;50.33;22.90;;;2.50;99.90;;;;;;5059480;28;20211;-47
2021/12/09 08:50:07;;;;;;;43.83;21.00;;;2.50;99.90;;;;;;5047187;28;20212;-47
2021/12/09 08:52:34;;;;;;;52.43;23.50;;;2.50;99.90;;;;;;5051864;28;20297;-48
2021/12/09 08:55:03;;;;;;;50.40;22.87;;;2.50;99.90;;;;;;5040528;28;20232;-47
2021/12/09 08:57:31;;;;;;;47.17;23.30;;;2.50;99.90;;;;;;5039448;28;20214;-47
2021/12/09 08:59:58;;;;;;;62.00;24.37;;;2.50;99.90;;;;;;5041116;28;20635;-47
2021/12/09 09:02:25;;;;;;;45.10;21.80;;;2.50;99.90;;;;;;5034681;28;20213;-47
2021/12/09 09:04:53;;;;;;;49.67;22.77;;;2.50;99.90;;;;;;5050661;28;20742;-47
2021/12/09 09:07:19;;;;;;;47.27;23.03;;;2.50;99.90;;;;;;5046719;28;20201;-47
2021/12/09 09:09:46;;;;;;;52.87;23.43;;;2.50;99.90;;;;;;5042404;28;20302;-48
2021/12/09 09:12:16;;;;;;;53.13;22.20;;;2.60;99.90;;;;;;5046602;28;20209;-47
2021/12/09 09:14:43;;;;;;;43.00;21.77;;;2.60;99.90;;;;;;5023551;28;25750;-48
2021/12/09 09:17:10;;;;;;;49.87;24.17;;;2.60;99.90;;;;;;5055496;28;20208;-47
2021/12/09 09:19:38;;;;;;;51.90;22.63;;;2.60;99.90;;;;;;5038447;28;20213;-47
2021/12/09 09:22:06;;;;;;;53.23;23.70;;;2.60;99.90;;;;;;5050150;28;20728;-47
2021/12/09 09:24:33;;;;;;;53.27;24.13;;;2.60;99.90;;;;;;5048207;28;20315;-47
2021/12/09 09:27:00;;;;;;;44.17;22.03;;;2.70;99.90;;;;;;5034170;28;20279;-47
2021/12/09 09:29:28;;;;;;;55.30;23.07;;;2.60;99.90;;;;;;5048148;28;20795;-47
2021/12/09 09:31:56;;;;;;;47.97;22.03;;;2.60;99.90;;;;;;5037500;28;20696;-47
2021/12/09 09:34:23;;;;;;;50.50;23.57;;;2.70;99.90;;;;;;5054318;28;20281;-47
2021/12/09 09:36:49;;;;;;;53.30;23.77;;;2.70;99.90;;;;;;5039163;28;20204;-47
2021/12/09 09:39:22;;;;;;;56.43;23.80;;;2.70;99.90;;;;;;5038542;28;20206;-47
2021/12/09 09:41:57;;;;;;;54.27;22.60;;;2.70;99.90;;;;;;5054978;28;20331;-47
2021/12/09 09:44:30;;;;;;;53.87;23.43;;;2.70;99.90;;;;;;5050915;28;20224;-47
2021/12/09 09:47:01;;;;;;;52.67;22.73;;;2.70;99.90;;;;;;5040414;28;20510;-47
2021/12/09 09:49:30;;;;;;;57.70;24.67;;;2.80;99.90;;;;;;5058550;28;20208;-46
2021/12/09 09:51:58;;;;;;;51.03;24.53;;;2.80;99.90;;;;;;5045126;28;20210;-46
2021/12/09 09:54:25;;;;;;;54.23;24.73;;;2.80;99.90;;;;;;5055030;28;20237;-46
2021/12/09 09:56:53;;;;;;;52.47;24.40;;;2.80;99.90;;;;;;5049855;28;20314;-46
2021/12/09 09:59:20;;;;;;;58.77;25.47;;;2.80;99.90;;;;;;5043893;28;20210;-46
2021/12/09 10:01:52;;;;;;;53.93;26.10;;;2.90;99.90;;;;;;5041838;28;20230;-47
2021/12/09 10:04:31;;;;;;;52.00;23.27;;;2.90;99.90;;;;;;5056865;28;20226;-46
2021/12/09 10:06:58;;;;;;;55.50;24.47;;;2.90;99.90;;;;;;5062567;28;20675;-47
2021/12/09 10:09:26;;;;;;;51.67;25.03;;;2.90;99.90;;;;;;5028084;28;20207;-47
2021/12/09 10:11:55;;;;;;;55.10;24.93;;;2.90;99.90;;;;;;5054240;28;20210;-46
2021/12/09 10:14:25;;;;;;;52.00;24.07;;;2.90;99.90;;;;;;5044188;28;20853;-46
2021/12/09 10:17:03;;;;;;;50.47;22.90;;;2.90;99.90;;;;;;5063540;28;20208;-46
2021/12/09 10:19:32;;;;;;;47.80;23.43;;;3.00;99.90;;;;;;5043585;28;20205;-46
2021/12/09 10:22:12;;;;;;;48.23;22.53;;;3.00;99.90;;;;;;5057829;28;21258;-46
2021/12/09 10:24:42;;;;;;;46.00;22.60;;;3.00;99.90;;;;;;5070089;28;20224;-46
2021/12/09 10:27:13;;;;;;;49.33;23.63;;;3.00;99.90;;;;;;5041885;28;20814;-43
2021/12/09 10:29:43;;;;;;;49.43;23.70;;;3.00;99.90;;;;;;5042660;28;20218;-43
2021/12/09 10:32:14;;;;;;;48.83;22.77;;;3.00;99.90;;;;;;5056136;28;20271;-46
2021/12/09 10:34:45;;;;;;;48.97;22.13;;;3.10;99.90;;;;;;5044754;28;20230;-47
2021/12/09 10:37:14;;;;;;;55.87;23.17;;;3.10;99.90;;;;;;5057657;28;20211;-47
2021/12/09 10:39:48;;;;;;;55.43;24.53;;;3.10;99.90;;;;;;5048140;28;20225;-46
2021/12/09 10:42:20;;;;;;;52.37;23.60;;;3.10;99.90;;;;;;5044747;28;20359;-47
2021/12/09 10:44:59;;;;;;;46.47;22.53;;;3.20;99.90;;;;;;5057630;28;20834;-46
2021/12/09 10:47:48;;;;;;;57.73;23.07;;;3.10;99.90;;;;;;5054859;28;20217;-46
2021/12/09 10:50:26;;;;;;;48.93;23.77;;;3.20;99.90;;;;;;5021894;28;20911;-46
2021/12/09 10:52:58;;;;;;;49.83;23.37;;;3.20;99.90;;;;;;5034892;28;20213;-42
2021/12/09 10:55:30;;;;;;;52.63;23.17;;;3.20;99.90;;;;;;5059319;28;20200;-42
2021/12/09 10:58:01;;;;;;;49.53;22.43;;;3.20;99.90;;;;;;5043094;28;20211;-42
2021/12/09 11:00:37;;;;;;;45.10;21.43;;;3.20;99.90;;;;;;5045561;28;20287;-42
2021/12/09 11:03:10;;;;;;;45.37;22.00;;;3.30;99.90;;;;;;5045293;28;20249;-42
2021/12/09 11:05:41;;;;;;;42.77;21.97;;;3.20;99.90;;;;;;5040397;28;20592;-42
2021/12/09 11:08:33;;;;;;;45.10;21.90;;;3.30;99.90;;;;;;5049669;28;20400;-42
2021/12/09 11:11:07;;;;;;;47.63;23.30;;;3.20;99.90;;;;;;5051715;28;20214;-42
2021/12/09 11:13:44;;;;;;;44.33;21.70;;;3.30;99.90;;;;;;5046004;28;20787;-42
2021/12/09 11:16:14;;;;;;;47.77;21.43;;;3.30;99.90;;;;;;5049166;28;20404;-42
2021/12/09 11:18:45;;;;;;;46.47;22.23;;;3.30;99.90;;;;;;5066069;28;20691;-42
2021/12/09 11:21:20;;;;;;;43.53;21.90;;;3.30;99.90;;;;;;5034693;28;20215;-42
2021/12/09 11:23:52;;;;;;;41.30;20.90;;;3.30;99.90;;;;;;5060338;28;20234;-46
2021/12/09 11:26:50;;;;;;;43.63;22.07;;;3.30;99.90;;;;;;5047534;28;20541;-46
2021/12/09 11:29:19;;;;;;;43.23;21.97;;;3.30;99.90;;;;;;5044094;28;20459;-46
2021/12/09 11:31:58;;;;;;;50.80;23.33;;;3.30;99.90;;;;;;5044806;28;20230;-46
2021/12/09 11:34:30;;;;;;;38.33;20.17;;;3.30;99.90;;;;;;5043629;28;20912;-47
2021/12/09 11:37:07;;;;;;;47.80;21.37;;;3.30;99.90;;;;;;5056878;28;20293;-46
2021/12/09 11:39:37;;;;;;;41.87;21.50;;;3.40;99.90;;;;;;5045595;28;20211;-47
2021/12/09 11:42:19;;;;;;;53.07;23.07;;;3.40;99.90;;;;;;5049422;28;20224;-47
2021/12/09 11:44:47;;;;;;;48.33;22.77;;;3.30;99.90;;;;;;5056465;28;20550;-45
2021/12/09 11:47:15;;;;;;;43.77;22.73;;;3.30;99.90;;;;;;5040693;28;20211;-46
2021/12/09 11:49:43;;;;;;;43.63;21.53;;;3.30;99.90;;;;;;5051739;28;20247;-47
2021/12/09 11:52:13;;;;;;;40.97;20.40;;;3.30;99.90;;;;;;5055786;28;20592;-46
2021/12/09 11:54:42;;;;;;;44.30;20.87;;;3.30;99.90;;;;;;5043027;28;23197;-46
2021/12/09 11:57:29;;;;;;;44.73;21.07;;;3.30;99.90;;;;;;5058978;28;20205;-47
2021/12/09 12:11:42;;;;;;;37.17;19.37;;;3.40;99.90;;;;;;5063184;28;20233;-46
2021/12/09 12:14:29;;;;;;;37.70;18.80;;;3.30;99.90;;;;;;5044428;28;20613;-46
2021/12/09 12:17:07;;;;;;;40.23;20.33;;;3.40;99.90;;;;;;5035812;28;20343;-46
2021/12/09 12:20:07;;;;;;;42.90;21.40;;;3.30;99.90;;;;;;5039191;28;20211;-46
2021/12/09 12:23:09;;;;;;;37.60;20.50;;;3.40;99.90;;;;;;5038782;28;20675;-46
2021/12/09 12:31:59;;;;;;;37.47;19.03;;;3.40;99.90;;;;;;5052541;28;20208;-46
2021/12/09 12:37:49;;;;;;;40.43;19.17;;;3.40;99.90;;;;;;5035198;28;20677;-46
2021/12/09 12:40:18;;;;;;;39.63;17.43;;;3.40;99.90;;;;;;5062949;28;20310;-46
2021/12/09 12:42:52;;;;;;;36.73;19.27;;;3.40;99.90;;;;;;5046365;28;20483;-46
2021/12/09 12:45:37;;;;;;;36.50;19.30;;;3.40;99.90;;;;;;5034064;28;20275;-47
2021/12/09 12:51:53;;;;;;;32.97;18.47;;;3.40;99.90;;;;;;4994265;28;20207;-47
2021/12/09 12:54:32;;;;;;;32.53;18.73;;;3.40;99.90;;;;;;5057256;28;20228;-47
2021/12/09 12:57:02;;;;;;;40.70;18.97;;;3.40;99.90;;;;;;5050491;28;20220;-47
2021/12/09 12:59:34;;;;;;;42.43;20.20;;;3.50;99.90;;;;;;5049603;28;20205;-42
2021/12/09 13:05:25;;;;;;;37.43;19.23;;;3.50;99.90;;;;;;5048356;28;20203;-42
2021/12/09 13:11:20;;;;;;;40.57;18.57;;;3.40;99.90;;;;;;5098836;27;21375;-40
2021/12/09 13:14:03;;;;;;;36.37;19.10;;;3.40;99.90;;;;;;5079087;27;20253;-41
2021/12/09 13:16:42;;;;;;;37.43;19.00;;;3.40;99.90;;;;;;5082214;27;20287;-46
2021/12/09 13:19:34;;;;;;;39.47;19.93;;;3.40;99.90;;;;;;5081124;27;20696;-48
2021/12/09 13:22:04;;;;;;;34.20;19.33;;;3.40;99.90;;;;;;5101083;27;20226;-41